Thunder radar more information blitzortung!


Radar de pluja more information rain snow radar


Visita la nostra xarxa de llocs de meteo:

Template documentation
and downloads

And another site



No particular awareness of the weather is required.    There are no Weather-warnings

Pagina Historial Weather Underground text

Diari Resum May 4, 2017 Unitats:  Mètric    Imperial   Tant
« Previous Dia
SegĂźent Dia »
Diari Setmana Mensual Anual Personalitzada
  Maxima: Minima: Media:
Temperatura: 22.8 °C 10.8 °C 17.3 °C
Punt de rosada: 13.8 °C 9.2 °C 11.3 °C
Humitat: 93 % 51 % 69 %
Wind Speed: 18.5 km/h 0.0 km/h 6.1 km/h
RĂ fegues de vent: 18.5 km/h - -
Vent:- - South
Pression baro: 1017.8 hPa 1011.7 hPa -
Precipitacions: 0.0 mm    
Historical Graphs
 
 
Dades de taula per May 4, 2017
Temps Temperatura Punt de rosada Pression baro Vent Wind Speed RĂ fegues de vent Humitat Rainfall Rate (Hourly)
00:00 11.0 °C 9.4 °C 1015.8 hPa Calm     90 % 0.0 mm
00:02 12.2 °C 9.9 °C 1017.8 hPa NE 3.7 km/h 3.7 km/h 86 % 0.0 mm
00:07 12.2 °C 9.9 °C 1017.8 hPa NNE 1.9 km/h   86 % 0.0 mm
00:10 11.0 °C 9.4 °C 1015.8 hPa Calm     90 % 0.0 mm
00:25 11.0 °C 9.6 °C 1015.8 hPa Calm     91 % 0.0 mm
00:35 11.0 °C 9.6 °C 1015.8 hPa Calm     91 % 0.0 mm
00:45 10.9 °C 9.5 °C 1015.8 hPa Calm     91 % 0.0 mm
00:55 10.8 °C 9.2 °C 1015.8 hPa SW 1.6 km/h 3.2 km/h 90 % 0.0 mm
01:05 10.8 °C 9.4 °C 1015.8 hPa SW 1.6 km/h 1.6 km/h 91 % 0.0 mm
01:15 10.8 °C 9.4 °C 1015.8 hPa Calm     91 % 0.0 mm
01:25 10.8 °C 9.4 °C 1015.8 hPa Calm     91 % 0.0 mm
01:35 10.8 °C 9.4 °C 1014.8 hPa Calm     91 % 0.0 mm
01:45 10.8 °C 9.6 °C 1014.8 hPa Calm     92 % 0.0 mm
01:55 10.8 °C 9.4 °C 1014.8 hPa Calm     91 % 0.0 mm
02:05 10.8 °C 9.4 °C 1014.8 hPa WSW 1.6 km/h 1.6 km/h 91 % 0.0 mm
02:15 10.8 °C 9.6 °C 1014.8 hPa Calm   1.6 km/h 92 % 0.0 mm
02:25 10.8 °C 9.6 °C 1014.8 hPa WSW 1.6 km/h 3.2 km/h 92 % 0.0 mm
02:35 10.8 °C 9.6 °C 1014.8 hPa Calm   1.6 km/h 92 % 0.0 mm
02:45 10.9 °C 9.7 °C 1014.8 hPa WSW 1.6 km/h 3.2 km/h 92 % 0.0 mm
02:55 11.0 °C 9.7 °C 1014.8 hPa WSW 3.2 km/h 3.2 km/h 92 % 0.0 mm
03:05 10.9 °C 9.5 °C 1014.8 hPa WSW 1.6 km/h 3.2 km/h 91 % 0.0 mm
03:15 10.9 °C 9.5 °C 1014.8 hPa WSW 3.2 km/h 4.8 km/h 91 % 0.0 mm
03:25 10.9 °C 9.5 °C 1014.8 hPa SW 1.6 km/h 3.2 km/h 91 % 0.0 mm
03:35 11.1 °C 9.7 °C 1014.8 hPa WSW 1.6 km/h 3.2 km/h 91 % 0.0 mm
03:45 11.2 °C 9.9 °C 1014.8 hPa WSW 1.6 km/h 3.2 km/h 92 % 0.0 mm
03:55 11.4 °C 10.3 °C 1014.8 hPa SW 1.6 km/h 1.6 km/h 93 % 0.0 mm
04:05 11.5 °C 10.4 °C 1014.8 hPa SSE 1.6 km/h 3.2 km/h 93 % 0.0 mm
04:15 12.1 °C 11.0 °C 1014.8 hPa SE 1.6 km/h 1.6 km/h 93 % 0.0 mm
04:25 12.5 °C 11.4 °C 1014.8 hPa SW 1.6 km/h 3.2 km/h 93 % 0.0 mm
04:35 12.6 °C 11.3 °C 1014.8 hPa SW 1.6 km/h 3.2 km/h 92 % 0.0 mm
04:45 12.9 °C 11.4 °C 1014.8 hPa SW 3.2 km/h 4.8 km/h 91 % 0.0 mm
04:55 12.9 °C 11.3 °C 1014.8 hPa SW 1.6 km/h 3.2 km/h 90 % 0.0 mm
05:05 13.2 °C 11.4 °C 1013.8 hPa WSW 3.2 km/h 3.2 km/h 89 % 0.0 mm
05:15 14.1 °C 12.3 °C 1013.8 hPa SW 1.6 km/h 4.8 km/h 89 % 0.0 mm
05:25 14.6 °C 12.6 °C 1014.8 hPa SW 1.6 km/h 3.2 km/h 88 % 0.0 mm
05:35 15.2 °C 12.7 °C 1014.8 hPa WSW 1.6 km/h 6.4 km/h 85 % 0.0 mm
05:45 16.1 °C 13.2 °C 1014.8 hPa SSW 1.6 km/h 6.4 km/h 83 % 0.0 mm
05:55 16.7 °C 13.6 °C 1013.8 hPa SSW 1.6 km/h 4.8 km/h 82 % 0.0 mm
11:00 17.2 °C 13.7 °C 1013.8 hPa WSW 5.6 km/h 5.6 km/h 80 % 0.0 mm
11:05 16.8 °C 13.3 °C 1013.8 hPa SSE 9.3 km/h 9.3 km/h 80 % 0.0 mm
11:10 17.1 °C 13.2 °C 1013.8 hPa SW 11.1 km/h 11.1 km/h 78 % 0.0 mm
11:15 17.4 °C 13.5 °C 1013.8 hPa SW 5.6 km/h 5.6 km/h 78 % 0.0 mm
11:20 17.8 °C 13.7 °C 1013.8 hPa SSW 9.3 km/h 9.3 km/h 77 % 0.0 mm
11:21 17.9 °C 13.8 °C 1013.8 hPa South 9.3 km/h 9.3 km/h 77 % 0.0 mm
11:27 17.7 °C 13.3 °C 1013.8 hPa SW 7.4 km/h 7.4 km/h 76 % 0.0 mm
11:32 18.1 °C 13.6 °C 1013.8 hPa South 6.4 km/h 6.4 km/h 75 % 0.0 mm
11:37 18.0 °C 13.5 °C 1013.8 hPa WSW 7.4 km/h 7.4 km/h 75 % 0.0 mm
11:42 18.0 °C 13.3 °C 1013.8 hPa SW 7.9 km/h 7.9 km/h 74 % 0.0 mm
11:47 18.3 °C 13.6 °C 1013.8 hPa SSE 11.1 km/h 11.1 km/h 74 % 0.0 mm
11:52 18.6 °C 13.7 °C 1013.8 hPa WSW 9.3 km/h 9.3 km/h 73 % 0.0 mm
11:57 18.4 °C 13.3 °C 1013.8 hPa WSW 5.3 km/h 5.3 km/h 72 % 0.0 mm
11:58 18.4 °C 13.4 °C 1013.8 hPa WNW 5.6 km/h 5.6 km/h 73 % 0.0 mm
12:03 18.7 °C 13.6 °C 1013.8 hPa SW 3.7 km/h 3.7 km/h 72 % 0.0 mm
12:08 18.9 °C 13.7 °C 1013.8 hPa SSE 5.6 km/h 5.6 km/h 72 % 0.0 mm
12:13 19.2 °C 13.6 °C 1013.8 hPa WSW 3.7 km/h 3.7 km/h 70 % 0.0 mm
12:18 19.2 °C 13.8 °C 1013.8 hPa WSW 6.4 km/h 6.4 km/h 71 % 0.0 mm
12:23 19.1 °C 13.1 °C 1013.8 hPa SW 9.3 km/h 9.3 km/h 68 % 0.0 mm
12:28 19.4 °C 13.3 °C 1013.8 hPa SE 5.6 km/h 5.6 km/h 68 % 0.0 mm
12:33 19.5 °C 13.0 °C 1013.8 hPa SSE 5.6 km/h 5.6 km/h 66 % 0.0 mm
12:38 20.2 °C 13.2 °C 1013.8 hPa WSW 7.4 km/h 7.4 km/h 64 % 0.0 mm
12:43 20.4 °C 12.6 °C 1013.8 hPa WSW 7.4 km/h 7.4 km/h 61 % 0.0 mm
12:48 20.6 °C 13.3 °C 1013.8 hPa WSW 9.3 km/h 9.3 km/h 63 % 0.0 mm
12:53 20.9 °C 12.8 °C 1013.8 hPa SSE 2.3 km/h 2.3 km/h 60 % 0.0 mm
12:58 20.9 °C 12.8 °C 1013.8 hPa SSE 9.3 km/h 9.3 km/h 60 % 0.0 mm
13:03 21.0 °C 12.7 °C 1013.8 hPa WSW 11.1 km/h 11.1 km/h 59 % 0.0 mm
13:08 20.8 °C 11.7 °C 1013.8 hPa South 9.3 km/h 9.3 km/h 56 % 0.0 mm
13:13 21.6 °C 13.0 °C 1013.8 hPa SW 6.9 km/h 6.9 km/h 58 % 0.0 mm
13:18 21.0 °C 11.6 °C 1013.8 hPa WSW 16.7 km/h 16.7 km/h 55 % 0.0 mm
13:23 21.2 °C 11.8 °C 1013.8 hPa SW 18.5 km/h 18.5 km/h 55 % 0.0 mm
13:28 21.6 °C 12.4 °C 1013.8 hPa SW 13.7 km/h 13.7 km/h 56 % 0.0 mm
13:33 22.0 °C 12.6 °C 1013.8 hPa NW 7.6 km/h 7.6 km/h 55 % 0.0 mm
13:38 21.4 °C 12.0 °C 1013.8 hPa SW 13.7 km/h 13.7 km/h 55 % 0.0 mm
13:43 21.7 °C 12.0 °C 1012.8 hPa WSW 13.0 km/h 13.0 km/h 54 % 0.0 mm
13:48 22.3 °C 12.6 °C 1012.8 hPa WSW 9.3 km/h 9.3 km/h 54 % 0.0 mm
13:53 21.7 °C 11.7 °C 1012.8 hPa SSW 13.0 km/h 13.0 km/h 53 % 0.0 mm
13:58 21.7 °C 11.7 °C 1013.8 hPa SSW 11.1 km/h 11.1 km/h 53 % 0.0 mm
14:03 22.1 °C 12.1 °C 1013.8 hPa SSE 9.3 km/h 9.3 km/h 53 % 0.0 mm
14:08 22.3 °C 12.3 °C 1013.8 hPa South 5.6 km/h 5.6 km/h 53 % 0.0 mm
14:13 22.2 °C 11.9 °C 1012.8 hPa SSW 11.1 km/h 11.1 km/h 52 % 0.0 mm
14:18 22.2 °C 12.2 °C 1012.8 hPa WSW 9.3 km/h 9.3 km/h 53 % 0.0 mm
14:23 22.1 °C 12.1 °C 1012.8 hPa SSE 9.3 km/h 9.3 km/h 53 % 0.0 mm
14:28 22.1 °C 12.1 °C 1012.8 hPa SSE 13.0 km/h 13.0 km/h 53 % 0.0 mm
14:33 22.4 °C 12.1 °C 1012.8 hPa East 5.8 km/h 5.8 km/h 52 % 0.0 mm
14:38 22.3 °C 12.3 °C 1012.8 hPa SSW 14.8 km/h 14.8 km/h 53 % 0.0 mm
14:43 22.0 °C 12.0 °C 1012.8 hPa South 9.3 km/h 9.3 km/h 53 % 0.0 mm
14:48 22.4 °C 12.1 °C 1012.8 hPa South 9.3 km/h 9.3 km/h 52 % 0.0 mm
14:53 22.3 °C 11.9 °C 1012.8 hPa SW 11.1 km/h 11.1 km/h 52 % 0.0 mm
14:58 22.4 °C 12.1 °C 1012.8 hPa WNW 9.3 km/h 9.3 km/h 52 % 0.0 mm
15:03 22.7 °C 12.3 °C 1012.8 hPa South 7.4 km/h 7.4 km/h 52 % 0.0 mm
15:04 22.7 °C 12.3 °C 1012.8 hPa South 7.6 km/h 7.6 km/h 52 % 0.0 mm
15:09 22.5 °C 12.2 °C 1012.8 hPa SW 15.6 km/h 15.6 km/h 52 % 0.0 mm
15:14 22.8 °C 12.4 °C 1012.8 hPa SW 6.4 km/h 6.4 km/h 52 % 0.0 mm
15:19 22.7 °C 12.3 °C 1012.8 hPa SSW 14.8 km/h 14.8 km/h 52 % 0.0 mm
15:24 22.3 °C 11.7 °C 1012.8 hPa West 7.4 km/h 7.4 km/h 51 % 0.0 mm
15:29 22.1 °C 11.5 °C 1011.7 hPa SSW 14.8 km/h 14.8 km/h 51 % 0.0 mm
15:34 22.5 °C 12.2 °C 1011.7 hPa SW 7.4 km/h 7.4 km/h 52 % 0.0 mm
15:39 22.2 °C 11.6 °C 1011.7 hPa SW 9.3 km/h 9.3 km/h 51 % 0.0 mm
15:44 22.2 °C 11.6 °C 1011.7 hPa South 9.3 km/h 9.3 km/h 51 % 0.0 mm
15:49 22.4 °C 11.8 °C 1011.7 hPa WSW 16.4 km/h 16.4 km/h 51 % 0.0 mm
15:54 21.2 °C 10.7 °C 1011.7 hPa South 13.0 km/h 13.0 km/h 51 % 0.0 mm
15:59 21.7 °C 11.1 °C 1011.7 hPa SW 13.0 km/h 13.0 km/h 51 % 0.0 mm
16:04 22.0 °C 11.7 °C 1011.7 hPa WSW 13.7 km/h 13.7 km/h 52 % 0.0 mm
16:09 22.2 °C 11.9 °C 1011.7 hPa SSE 10.0 km/h 10.0 km/h 52 % 0.0 mm
16:14 22.0 °C 11.7 °C 1011.7 hPa SW 11.1 km/h 11.1 km/h 52 % 0.0 mm
16:19 22.4 °C 12.1 °C 1011.7 hPa WSW 7.4 km/h 7.4 km/h 52 % 0.0 mm
16:24 22.3 °C 11.9 °C 1011.7 hPa WSW 7.4 km/h 7.4 km/h 52 % 0.0 mm
16:29 22.0 °C 11.7 °C 1011.7 hPa WSW 13.7 km/h 13.7 km/h 52 % 0.0 mm
16:34 21.8 °C 11.5 °C 1011.7 hPa SSW 14.8 km/h 14.8 km/h 52 % 0.0 mm
16:39 22.0 °C 11.7 °C 1011.7 hPa SW 12.6 km/h 12.6 km/h 52 % 0.0 mm
16:44 21.9 °C 11.6 °C 1011.7 hPa SSW 9.3 km/h 9.3 km/h 52 % 0.0 mm
16:49 21.5 °C 10.9 °C 1011.7 hPa SSE 11.1 km/h 11.1 km/h 51 % 0.0 mm
16:54 21.8 °C 11.5 °C 1011.7 hPa SW 13.0 km/h 13.0 km/h 52 % 0.0 mm
16:59 21.5 °C 11.2 °C 1011.7 hPa West 13.0 km/h 13.0 km/h 52 % 0.0 mm
17:04 21.7 °C 11.4 °C 1011.7 hPa NW 5.0 km/h 5.0 km/h 52 % 0.0 mm
17:09 21.9 °C 11.6 °C 1011.7 hPa WSW 5.6 km/h 5.6 km/h 52 % 0.0 mm
17:14 21.6 °C 11.3 °C 1011.7 hPa SSE 9.3 km/h 9.3 km/h 52 % 0.0 mm
17:19 22.0 °C 12.0 °C 1011.7 hPa WSW 9.3 km/h 9.3 km/h 53 % 0.0 mm
17:24 22.0 °C 11.7 °C 1011.7 hPa SSE 7.4 km/h 7.4 km/h 52 % 0.0 mm
17:29 21.4 °C 11.1 °C 1012.8 hPa SW 7.4 km/h 7.4 km/h 52 % 0.0 mm
17:34 21.7 °C 11.7 °C 1012.8 hPa SW 5.0 km/h 5.0 km/h 53 % 0.0 mm
17:39 21.5 °C 11.2 °C 1012.8 hPa SSW 9.3 km/h 9.3 km/h 52 % 0.0 mm
17:44 21.6 °C 11.3 °C 1011.7 hPa SSW 9.3 km/h 9.3 km/h 52 % 0.0 mm
17:49 21.2 °C 10.9 °C 1011.7 hPa SSW 5.8 km/h 5.8 km/h 52 % 0.0 mm
17:54 20.8 °C 11.2 °C 1011.7 hPa SSE 7.4 km/h 7.4 km/h 54 % 0.0 mm
17:59 20.8 °C 11.2 °C 1011.7 hPa WSW 7.4 km/h 7.4 km/h 54 % 0.0 mm
18:04 20.4 °C 10.8 °C 1011.7 hPa SSW 7.4 km/h 7.4 km/h 54 % 0.0 mm
18:09 20.3 °C 10.7 °C 1011.7 hPa SW 9.3 km/h 9.3 km/h 54 % 0.0 mm
18:14 20.2 °C 10.9 °C 1011.7 hPa WSW 9.3 km/h 9.3 km/h 55 % 0.0 mm
18:19 20.2 °C 10.9 °C 1011.7 hPa SSW 3.7 km/h 3.7 km/h 55 % 0.0 mm
18:24 20.4 °C 11.1 °C 1011.7 hPa South 3.7 km/h 3.7 km/h 55 % 0.0 mm
18:29 20.1 °C 10.8 °C 1011.7 hPa SW 3.7 km/h 3.7 km/h 55 % 0.0 mm
18:34 19.6 °C 10.6 °C 1011.7 hPa ESE 9.3 km/h 9.3 km/h 56 % 0.0 mm
18:39 19.5 °C 10.8 °C 1011.7 hPa WSW 6.1 km/h 6.1 km/h 57 % 0.0 mm
18:44 19.4 °C 10.9 °C 1011.7 hPa SSW 5.8 km/h 5.8 km/h 58 % 0.0 mm
18:49 19.1 °C 10.7 °C 1011.7 hPa SW 9.3 km/h 9.3 km/h 58 % 0.0 mm
18:54 18.9 °C 10.7 °C 1011.7 hPa WSW 5.6 km/h 5.6 km/h 59 % 0.0 mm
18:59 18.6 °C 10.7 °C 1012.8 hPa SW 10.0 km/h 10.0 km/h 60 % 0.0 mm
19:04 18.5 °C 10.8 °C 1012.8 hPa West 9.3 km/h 9.3 km/h 61 % 0.0 mm
19:09 18.4 °C 11.0 °C 1012.8 hPa WSW 9.3 km/h 9.3 km/h 62 % 0.0 mm
19:14 18.3 °C 10.9 °C 1012.8 hPa SSW 7.4 km/h 7.4 km/h 62 % 0.0 mm
19:19 18.1 °C 10.9 °C 1012.8 hPa South 12.2 km/h 12.2 km/h 63 % 0.0 mm
19:24 18.1 °C 10.9 °C 1012.8 hPa SW 5.6 km/h 5.6 km/h 63 % 0.0 mm
19:25 14.4 °C 11.0 °C 1014.8 hPa NE 3.2 km/h 6.4 km/h 80 % 0.0 mm
19:29 17.9 °C 10.8 °C 1012.8 hPa SW 9.3 km/h 9.3 km/h 63 % 0.0 mm
19:34 17.8 °C 10.7 °C 1012.8 hPa WSW 7.4 km/h 7.4 km/h 63 % 0.0 mm
19:35 14.4 °C 11.0 °C 1014.8 hPa NE 4.8 km/h 6.4 km/h 80 % 0.0 mm
19:39 17.7 °C 10.8 °C 1012.8 hPa ESE 7.4 km/h 7.4 km/h 64 % 0.0 mm
19:44 17.5 °C 10.6 °C 1013.8 hPa West 9.3 km/h 9.3 km/h 64 % 0.0 mm
19:45 14.4 °C 11.0 °C 1014.8 hPa NE 3.2 km/h 4.8 km/h 80 % 0.0 mm
19:49 17.5 °C 10.6 °C 1013.8 hPa WSW 4.2 km/h 4.2 km/h 64 % 0.0 mm
19:54 17.3 °C 10.4 °C 1013.8 hPa SW 9.3 km/h 9.3 km/h 64 % 0.0 mm
19:55 14.4 °C 11.0 °C 1014.8 hPa NE 1.6 km/h 3.2 km/h 80 % 0.0 mm
19:59 17.2 °C 10.3 °C 1013.8 hPa WSW 5.6 km/h 5.6 km/h 64 % 0.0 mm
20:04 17.1 °C 10.4 °C 1013.8 hPa SSW 9.3 km/h 9.3 km/h 65 % 0.0 mm
20:05 14.3 °C 10.9 °C 1015.8 hPa Calm   3.2 km/h 80 % 0.0 mm
20:09 17.0 °C 10.4 °C 1013.8 hPa WSW 5.6 km/h 5.6 km/h 65 % 0.0 mm
20:14 17.0 °C 10.4 °C 1012.8 hPa SW 5.6 km/h 5.6 km/h 65 % 0.0 mm
20:15 14.3 °C 11.1 °C 1015.8 hPa ENE 1.6 km/h 3.2 km/h 81 % 0.0 mm
20:19 16.8 °C 10.2 °C 1012.8 hPa WSW 5.6 km/h 5.6 km/h 65 % 0.0 mm
20:20 16.8 °C 10.2 °C 1012.8 hPa SW 5.6 km/h 5.6 km/h 65 % 0.0 mm
20:25 16.8 °C 10.2 °C 1012.8 hPa SSW 3.2 km/h 3.2 km/h 65 % 0.0 mm
20:30 16.7 °C 10.1 °C 1013.8 hPa SSW 3.7 km/h 3.7 km/h 65 % 0.0 mm
20:35 16.7 °C 10.1 °C 1013.8 hPa SW 3.7 km/h 3.7 km/h 65 % 0.0 mm
20:40 16.6 °C 10.0 °C 1013.8 hPa WSW 3.9 km/h 3.9 km/h 65 % 0.0 mm
20:45 16.5 °C 9.9 °C 1013.8 hPa WSW 1.9 km/h 1.9 km/h 65 % 0.0 mm
20:50 16.5 °C 9.9 °C 1013.8 hPa WSW 1.9 km/h   65 % 0.0 mm
20:55 16.4 °C 9.8 °C 1013.8 hPa ENE 3.9 km/h 3.9 km/h 65 % 0.0 mm
21:00 16.3 °C 9.7 °C 1013.8 hPa NE 4.2 km/h 4.2 km/h 65 % 0.0 mm
21:05 16.2 °C 10.5 °C 1013.8 hPa NE 5.8 km/h 5.8 km/h 69 % 0.0 mm
21:10 16.1 °C 10.8 °C 1013.8 hPa East 5.6 km/h 5.6 km/h 71 % 0.0 mm
21:15 16.0 °C 10.7 °C 1013.8 hPa ESE 7.4 km/h 7.4 km/h 71 % 0.0 mm
21:20 16.0 °C 11.2 °C 1013.8 hPa ENE 7.4 km/h 7.4 km/h 73 % 0.0 mm
21:25 15.9 °C 11.1 °C 1013.8 hPa NE 7.4 km/h 7.4 km/h 73 % 0.0 mm
21:30 15.9 °C 11.3 °C 1013.8 hPa ESE 5.6 km/h 5.6 km/h 74 % 0.0 mm
21:35 14.0 °C 10.6 °C 1013.8 hPa NE 1.6 km/h 6.4 km/h 80 % 0.0 mm
21:40 15.7 °C 11.1 °C 1013.8 hPa ESE 9.3 km/h 9.3 km/h 74 % 0.0 mm
21:45 15.6 °C 11.0 °C 1013.8 hPa ENE 5.0 km/h 5.0 km/h 74 % 0.0 mm
21:50 15.6 °C 11.2 °C 1013.8 hPa East 3.7 km/h 3.7 km/h 75 % 0.0 mm
21:55 15.5 °C 11.1 °C 1013.8 hPa ESE 4.7 km/h 4.7 km/h 75 % 0.0 mm
22:00 15.4 °C 11.0 °C 1014.8 hPa South 1.9 km/h   75 % 0.0 mm
22:05 15.4 °C 11.0 °C 1014.8 hPa SSE 1.9 km/h 1.9 km/h 75 % 0.0 mm
22:10 15.3 °C 10.9 °C 1014.8 hPa ENE 4.2 km/h 4.2 km/h 75 % 0.0 mm
22:11 15.3 °C 10.9 °C 1014.8 hPa ESE 5.6 km/h 5.6 km/h 75 % 0.0 mm
22:15 13.5 °C 10.3 °C 1014.8 hPa Calm     81 % 0.0 mm
22:16 15.3 °C 11.1 °C 1014.8 hPa East 3.9 km/h 3.9 km/h 76 % 0.0 mm
22:21 15.3 °C 11.1 °C 1014.8 hPa East 3.7 km/h 3.9 km/h 76 % 0.0 mm
22:25 13.4 °C 10.2 °C 1014.8 hPa NW 1.6 km/h 3.2 km/h 81 % 0.0 mm
22:26 15.2 °C 11.0 °C 1014.8 hPa ESE 5.0 km/h 5.0 km/h 76 % 0.0 mm
22:31 15.2 °C 11.2 °C 1014.8 hPa NE 5.6 km/h 5.6 km/h 77 % 0.0 mm
22:35 13.3 °C 10.1 °C 1014.8 hPa NNE 3.2 km/h 4.8 km/h 81 % 0.0 mm
22:36 15.2 °C 11.0 °C 1014.8 hPa East 5.6 km/h 5.6 km/h 76 % 0.0 mm
22:41 15.1 °C 11.1 °C 1014.8 hPa NNE 7.4 km/h 7.4 km/h 77 % 0.0 mm
22:45 13.1 °C 9.9 °C 1014.8 hPa NNE 4.8 km/h 4.8 km/h 81 % 0.0 mm
22:46 15.1 °C 11.1 °C 1014.8 hPa ESE 5.6 km/h 5.6 km/h 77 % 0.0 mm
22:51 15.1 °C 11.3 °C 1014.8 hPa East 5.6 km/h 5.6 km/h 78 % 0.0 mm
22:55 12.9 °C 9.7 °C 1013.8 hPa Calm   3.2 km/h 81 % 0.0 mm
22:56 15.1 °C 11.3 °C 1014.8 hPa NNE 3.9 km/h 3.9 km/h 78 % 0.0 mm
23:01 15.0 °C 11.2 °C 1015.8 hPa ESE 5.6 km/h 5.6 km/h 78 % 0.0 mm
23:05 12.7 °C 9.7 °C 1013.8 hPa Calm   3.2 km/h 82 % 0.0 mm
23:06 15.0 °C 11.2 °C 1015.8 hPa ENE 5.3 km/h 5.3 km/h 78 % 0.0 mm
23:11 15.0 °C 11.2 °C 1015.8 hPa ENE 3.7 km/h 3.7 km/h 78 % 0.0 mm
23:15 12.6 °C 9.6 °C 1013.8 hPa Calm     82 % 0.0 mm
23:16 14.9 °C 11.1 °C 1015.8 hPa NE 7.4 km/h 7.4 km/h 78 % 0.0 mm
23:21 14.9 °C 11.3 °C 1015.8 hPa NNE 5.6 km/h 5.6 km/h 79 % 0.0 mm
23:25 12.6 °C 9.6 °C 1013.8 hPa Calm     82 % 0.0 mm
23:26 14.8 °C 11.2 °C 1015.8 hPa NE 3.7 km/h 3.9 km/h 79 % 0.0 mm
23:31 14.7 °C 11.1 °C 1015.8 hPa ESE 3.5 km/h   79 % 0.0 mm
23:35 12.6 °C 9.8 °C 1013.8 hPa Calm     83 % 0.0 mm
23:36 14.7 °C 11.1 °C 1015.8 hPa NE 3.7 km/h 3.7 km/h 79 % 0.0 mm
23:41 14.6 °C 11.0 °C 1015.8 hPa ENE 3.7 km/h 3.7 km/h 79 % 0.0 mm
23:45 12.5 °C 9.7 °C 1013.8 hPa Calm     83 % 0.0 mm
23:46 14.6 °C 11.2 °C 1014.8 hPa East 2.6 km/h 2.6 km/h 80 % 0.0 mm
23:51 14.5 °C 11.1 °C 1014.8 hPa ENE 3.7 km/h 3.7 km/h 80 % 0.0 mm
23:55 12.6 °C 9.8 °C 1012.8 hPa Calm   3.2 km/h 83 % 0.0 mm
23:56 14.5 °C 11.1 °C 1014.8 hPa NE 3.7 km/h 3.7 km/h 80 % 0.0 mm
Meteo Sesrovires
Elogis d' Weather Underground - 3.75 mb

Guio original per  Jim McMurry - jmcmurry@mwt.net Adaptat per a la plantilla per  Wim van der Kuil - Leuven-Template.eu

Trobareu la nostra informacio del temps tambe a:

Weather Underground

AWEKAS